Time,TemperatureF,DewpointF,PressureIn,WindDirection,WindDirectionDegrees,WindSpeedMPH,WindSpeedGustMPH,Humidity,HourlyPrecipIn,Conditions,Clouds,dailyrainin,SoftwareType,DateUTC
2013-06-06 00:02:00,64.0,49.0,-100.00,South,176,1.0,2.0,58,0.00,,,-99.99,,2013-06-06 06:02:00,
2013-06-06 00:12:00,63.0,49.0,-100.00,SE,137,3.0,4.0,59,0.00,,,-99.99,,2013-06-06 06:12:00,
2013-06-06 00:22:00,63.0,48.0,-100.00,SSE,148,2.0,4.0,58,0.00,,,-99.99,,2013-06-06 06:22:00,
2013-06-06 00:32:00,63.0,48.0,-100.00,SSE,148,2.0,4.0,58,0.00,,,-99.99,,2013-06-06 06:32:00,
2013-06-06 00:42:00,62.0,48.0,-100.00,South,182,0.0,2.0,60,0.00,,,-99.99,,2013-06-06 06:42:00,
2013-06-06 00:52:00,62.0,49.0,-100.00,North,353,3.0,7.0,62,0.00,,,-99.99,,2013-06-06 06:52:00,
2013-06-06 01:02:00,62.0,49.0,-100.00,North,353,3.0,7.0,62,0.00,,,-99.99,,2013-06-06 07:02:00,
2013-06-06 01:12:00,62.0,48.0,-100.00,North,350,6.0,9.0,61,0.00,,,-99.99,,2013-06-06 07:12:00,
2013-06-06 01:22:00,62.0,48.0,-100.00,North,6,4.0,7.0,61,0.00,,,-99.99,,2013-06-06 07:22:00,
2013-06-06 01:32:00,62.0,48.0,-100.00,North,6,4.0,7.0,61,0.00,,,-99.99,,2013-06-06 07:32:00,
2013-06-06 01:42:00,61.0,48.0,-100.00,NNW,340,3.0,5.0,61,0.00,,,-99.99,,2013-06-06 07:42:00,
2013-06-06 01:52:00,61.0,48.0,-100.00,North,350,3.0,5.0,61,0.00,,,-99.99,,2013-06-06 07:52:00,
2013-06-06 02:02:00,61.0,48.0,-100.00,North,350,3.0,5.0,61,0.00,,,-99.99,,2013-06-06 08:02:00,
2013-06-06 02:12:00,61.0,48.0,-100.00,North,3,3.0,5.0,61,0.00,,,-99.99,,2013-06-06 08:12:00,
2013-06-06 02:22:00,61.0,47.0,-100.00,NNE,17,5.0,8.0,61,0.00,,,-99.99,,2013-06-06 08:22:00,
2013-06-06 02:32:00,61.0,47.0,-100.00,NNE,17,5.0,8.0,61,0.00,,,-99.99,,2013-06-06 08:32:00,
2013-06-06 02:42:00,61.0,47.0,-100.00,North,4,5.0,9.0,60,0.00,,,-99.99,,2013-06-06 08:42:00,
2013-06-06 02:52:00,60.0,47.0,-100.00,North,7,7.0,10.0,63,0.00,,,-99.99,,2013-06-06 08:52:00,
2013-06-06 03:01:00,60.0,47.0,-100.00,North,7,7.0,10.0,63,0.00,,,-99.99,,2013-06-06 09:01:00,
2013-06-06 03:12:00,60.0,48.0,-100.00,North,352,6.0,10.0,63,0.00,,,-99.99,,2013-06-06 09:12:00,
2013-06-06 03:22:00,60.0,47.0,-100.00,North,4,7.0,10.0,63,0.00,,,-99.99,,2013-06-06 09:22:00,
2013-06-06 03:32:00,60.0,47.0,-100.00,North,4,7.0,10.0,63,0.00,,,-99.99,,2013-06-06 09:32:00,
2013-06-06 03:43:00,59.0,47.0,-100.00,North,353,5.0,9.0,64,0.00,,,-99.99,,2013-06-06 09:43:00,
2013-06-06 03:53:00,60.0,47.0,-100.00,NNW,346,4.0,7.0,63,0.00,,,-99.99,,2013-06-06 09:53:00,
2013-06-06 04:02:00,60.0,47.0,-100.00,NNW,346,4.0,7.0,63,0.00,,,-99.99,,2013-06-06 10:02:00,
2013-06-06 04:12:00,58.0,47.0,-100.00,NNW,337,5.0,10.0,67,0.00,,,-99.99,,2013-06-06 10:12:00,
2013-06-06 04:22:00,59.0,47.0,-100.00,North,353,5.0,8.0,65,0.00,,,-99.99,,2013-06-06 10:22:00,
2013-06-06 04:33:00,59.0,47.0,-100.00,North,353,5.0,8.0,65,0.00,,,-99.99,,2013-06-06 10:33:00,
2013-06-06 04:42:00,58.0,47.0,-100.00,North,0,5.0,9.0,66,0.00,,,-99.99,,2013-06-06 10:42:00,
2013-06-06 04:53:00,58.0,47.0,-100.00,North,350,4.0,8.0,67,0.00,,,-99.99,,2013-06-06 10:53:00,
2013-06-06 05:02:00,58.0,47.0,-100.00,North,350,4.0,8.0,67,0.00,,,-99.99,,2013-06-06 11:02:00,
2013-06-06 05:12:00,58.0,47.0,-100.00,North,3,5.0,9.0,66,0.00,,,-99.99,,2013-06-06 11:12:00,
2013-06-06 05:22:00,57.0,47.0,-100.00,NNW,329,4.0,8.0,68,0.00,,,-99.99,,2013-06-06 11:22:00,
2013-06-06 05:32:00,57.0,47.0,-100.00,NNW,329,4.0,8.0,68,0.00,,,-99.99,,2013-06-06 11:32:00,
2013-06-06 05:42:00,58.0,47.0,-100.00,NNW,337,4.0,6.0,67,0.00,,,-99.99,,2013-06-06 11:42:00,
2013-06-06 05:52:00,58.0,47.0,-100.00,NNW,344,5.0,10.0,66,0.00,,,-99.99,,2013-06-06 11:52:00,
2013-06-06 06:02:00,58.0,47.0,-100.00,NNW,344,5.0,10.0,66,0.00,,,-99.99,,2013-06-06 12:02:00,
2013-06-06 06:12:00,58.0,46.0,-100.00,NNW,343,5.0,9.0,65,0.00,,,-99.99,,2013-06-06 12:12:00,
2013-06-06 06:22:00,58.0,46.0,-100.00,North,350,6.0,9.0,65,0.00,,,-99.99,,2013-06-06 12:22:00,
2013-06-06 06:32:00,58.0,46.0,-100.00,North,350,6.0,9.0,65,0.00,,,-99.99,,2013-06-06 12:32:00,
2013-06-06 06:42:00,59.0,46.0,-100.00,North,350,6.0,9.0,62,0.00,,,-99.99,,2013-06-06 12:42:00,
2013-06-06 06:53:00,58.0,46.0,-100.00,North,349,6.0,11.0,64,0.00,,,-99.99,,2013-06-06 12:53:00,
2013-06-06 07:02:00,58.0,46.0,-100.00,North,349,6.0,11.0,64,0.00,,,-99.99,,2013-06-06 13:02:00,
2013-06-06 07:12:00,58.0,46.0,-100.00,North,349,6.0,10.0,64,0.00,,,-99.99,,2013-06-06 13:12:00,
2013-06-06 07:22:00,58.0,46.0,-100.00,North,359,8.0,12.0,65,0.00,,,-99.99,,2013-06-06 13:22:00,
2013-06-06 07:32:00,58.0,46.0,-100.00,North,359,8.0,12.0,65,0.00,,,-99.99,,2013-06-06 13:32:00,
2013-06-06 07:42:00,58.0,46.0,-100.00,North,357,8.0,12.0,63,0.00,,,-99.99,,2013-06-06 13:42:00,
2013-06-06 07:53:00,58.0,47.0,-100.00,NNW,347,6.0,11.0,65,0.00,,,-99.99,,2013-06-06 13:53:00,
2013-06-06 08:02:00,58.0,47.0,-100.00,NNW,347,6.0,11.0,65,0.00,,,-99.99,,2013-06-06 14:02:00,
2013-06-06 08:12:00,60.0,47.0,-100.00,North,349,6.0,11.0,62,0.00,,,-99.99,,2013-06-06 14:12:00,
2013-06-06 08:22:00,61.0,47.0,-100.00,North,350,6.0,10.0,59,0.00,,,-99.99,,2013-06-06 14:22:00,
2013-06-06 08:32:00,61.0,47.0,-100.00,North,350,6.0,10.0,59,0.00,,,-99.99,,2013-06-06 14:32:00,
2013-06-06 08:42:00,62.0,46.0,-100.00,North,3,6.0,10.0,57,0.00,,,-99.99,,2013-06-06 14:42:00,
2013-06-06 08:53:00,63.0,47.0,-100.00,North,356,6.0,9.0,57,0.00,,,-99.99,,2013-06-06 14:53:00,
2013-06-06 09:02:00,63.0,47.0,-100.00,North,356,6.0,9.0,57,0.00,,,-99.99,,2013-06-06 15:02:00,
2013-06-06 09:12:00,63.0,49.0,-100.00,NNW,339,5.0,11.0,60,0.00,,,-99.99,,2013-06-06 15:12:00,
2013-06-06 09:22:00,64.0,48.0,-100.00,NNW,330,3.0,7.0,57,0.00,,,-99.99,,2013-06-06 15:22:00,
2013-06-06 09:32:00,64.0,48.0,-100.00,NNW,330,3.0,7.0,57,0.00,,,-99.99,,2013-06-06 15:32:00,
2013-06-06 09:43:00,66.0,49.0,-100.00,NW,326,4.0,7.0,54,0.00,,,-99.99,,2013-06-06 15:43:00,
2013-06-06 09:53:00,67.0,49.0,-100.00,North,349,4.0,8.0,52,0.00,,,-99.99,,2013-06-06 15:53:00,
2013-06-06 10:02:00,67.0,49.0,-100.00,North,349,4.0,8.0,52,0.00,,,-99.99,,2013-06-06 16:02:00,
2013-06-06 10:12:00,68.0,49.0,-100.00,North,359,4.0,7.0,50,0.00,,,-99.99,,2013-06-06 16:12:00,
2013-06-06 10:22:00,69.0,49.0,-100.00,NE,35,2.0,3.0,48,0.00,,,-99.99,,2013-06-06 16:22:00,
2013-06-06 10:33:00,69.0,49.0,-100.00,NE,35,2.0,3.0,48,0.00,,,-99.99,,2013-06-06 16:33:00,
2013-06-06 10:43:00,70.0,50.0,-100.00,North,349,3.0,6.0,50,0.00,,,-99.99,,2013-06-06 16:43:00,
2013-06-06 10:53:00,69.0,50.0,-100.00,NW,322,2.0,5.0,50,0.00,,,-99.99,,2013-06-06 16:53:00,
2013-06-06 11:02:00,69.0,50.0,-100.00,NW,322,2.0,5.0,50,0.00,,,-99.99,,2013-06-06 17:02:00,
2013-06-06 11:12:00,69.0,52.0,-100.00,NNW,332,2.0,4.0,53,0.00,,,-99.99,,2013-06-06 17:12:00,
2013-06-06 11:22:00,71.0,51.0,-100.00,NNW,347,3.0,8.0,49,0.00,,,-99.99,,2013-06-06 17:22:00,
2013-06-06 11:32:00,71.0,51.0,-100.00,NNW,347,3.0,8.0,49,0.00,,,-99.99,,2013-06-06 17:32:00,
2013-06-06 11:42:00,71.0,51.0,-100.00,NNW,347,3.0,8.0,49,0.00,,,-99.99,,2013-06-06 17:42:00,
2013-06-06 11:53:00,74.0,52.0,-100.00,NNW,346,3.0,7.0,47,0.00,,,-99.99,,2013-06-06 17:53:00,
2013-06-06 12:02:00,74.0,52.0,-100.00,NNW,346,3.0,7.0,47,0.00,,,-99.99,,2013-06-06 18:02:00,
2013-06-06 12:12:00,76.0,52.0,-100.00,NE,56,1.0,4.0,43,0.00,,,-99.99,,2013-06-06 18:12:00,
2013-06-06 12:22:00,78.0,53.0,-100.00,West,275,1.0,2.0,42,0.00,,,-99.99,,2013-06-06 18:22:00,
2013-06-06 12:33:00,78.0,53.0,-100.00,West,275,1.0,2.0,42,0.00,,,-99.99,,2013-06-06 18:33:00,
2013-06-06 12:43:00,79.0,47.0,-100.00,West,277,1.0,2.0,32,0.00,,,-99.99,,2013-06-06 18:43:00,
2013-06-06 12:53:00,82.0,46.0,-100.00,WSW,248,2.0,2.0,29,0.00,,,-99.99,,2013-06-06 18:53:00,
2013-06-06 13:02:00,82.0,46.0,-100.00,WSW,248,2.0,2.0,29,0.00,,,-99.99,,2013-06-06 19:02:00,
2013-06-06 13:12:00,84.0,47.0,-100.00,SSE,161,4.0,6.0,28,0.00,,,-99.99,,2013-06-06 19:12:00,
2013-06-06 13:23:00,84.0,47.0,-100.00,SSE,161,4.0,6.0,28,0.00,,,-99.99,,2013-06-06 19:23:00,
2013-06-06 13:42:00,80.0,47.0,-100.00,WNW,296,3.0,5.0,31,0.00,,,-99.99,,2013-06-06 19:42:00,
2013-06-06 13:53:00,82.0,44.0,-100.00,NW,325,3.0,6.0,27,0.00,,,-99.99,,2013-06-06 19:53:00,
2013-06-06 14:02:00,82.0,44.0,-100.00,NW,325,3.0,6.0,27,0.00,,,-99.99,,2013-06-06 20:02:00,
2013-06-06 14:12:00,82.0,47.0,-100.00,NW,323,3.0,5.0,29,0.00,,,-99.99,,2013-06-06 20:12:00,
2013-06-06 14:22:00,83.0,46.0,-100.00,NW,306,4.0,5.0,28,0.00,,,-99.99,,2013-06-06 20:22:00,
2013-06-06 14:32:00,83.0,46.0,-100.00,NW,306,4.0,5.0,28,0.00,,,-99.99,,2013-06-06 20:32:00,
2013-06-06 14:42:00,83.0,44.0,-100.00,NNW,346,2.0,4.0,25,0.00,,,-99.99,,2013-06-06 20:42:00,
2013-06-06 14:53:00,83.0,45.0,-100.00,WNW,288,2.0,3.0,27,0.00,,,-99.99,,2013-06-06 20:53:00,
2013-06-06 15:02:00,83.0,45.0,-100.00,WNW,288,2.0,3.0,27,0.00,,,-99.99,,2013-06-06 21:02:00,
2013-06-06 15:12:00,83.0,44.0,-100.00,NW,305,4.0,6.0,26,0.00,,,-99.99,,2013-06-06 21:12:00,
2013-06-06 15:22:00,84.0,47.0,-100.00,WNW,296,3.0,6.0,28,0.00,,,-99.99,,2013-06-06 21:22:00,
2013-06-06 15:33:00,84.0,47.0,-100.00,WNW,296,3.0,6.0,28,0.00,,,-99.99,,2013-06-06 21:33:00,
2013-06-06 15:43:00,84.0,47.0,-100.00,NW,316,2.0,4.0,27,0.00,,,-99.99,,2013-06-06 21:43:00,
2013-06-06 15:53:00,86.0,44.0,-100.00,SSE,167,4.0,6.0,23,0.00,,,-99.99,,2013-06-06 21:53:00,
2013-06-06 16:02:00,86.0,44.0,-100.00,SSE,167,4.0,6.0,23,0.00,,,-99.99,,2013-06-06 22:02:00,
2013-06-06 16:12:00,87.0,45.0,-100.00,South,185,2.0,4.0,23,0.00,,,-99.99,,2013-06-06 22:12:00,
2013-06-06 16:23:00,85.0,45.0,-100.00,South,175,3.0,6.0,24,0.00,,,-99.99,,2013-06-06 22:23:00,
2013-06-06 16:33:00,85.0,45.0,-100.00,South,175,3.0,6.0,24,0.00,,,-99.99,,2013-06-06 22:33:00,
2013-06-06 16:43:00,85.0,45.0,-100.00,SSE,157,7.0,10.0,25,0.00,,,-99.99,,2013-06-06 22:43:00,
2013-06-06 16:53:00,85.0,46.0,-100.00,South,185,3.0,6.0,26,0.00,,,-99.99,,2013-06-06 22:53:00,
2013-06-06 17:02:00,85.0,46.0,-100.00,South,185,3.0,6.0,26,0.00,,,-99.99,,2013-06-06 23:02:00,
2013-06-06 17:12:00,85.0,45.0,-100.00,South,174,5.0,11.0,26,0.00,,,-99.99,,2013-06-06 23:12:00,
2013-06-06 17:22:00,85.0,44.0,-100.00,SSE,161,4.0,7.0,24,0.00,,,-99.99,,2013-06-06 23:22:00,
2013-06-06 17:33:00,85.0,44.0,-100.00,SSE,161,4.0,7.0,24,0.00,,,-99.99,,2013-06-06 23:33:00,
2013-06-06 17:42:00,84.0,44.0,-100.00,WSW,243,2.0,4.0,25,0.00,,,-99.99,,2013-06-06 23:42:00,
2013-06-06 17:52:00,85.0,47.0,-100.00,WSW,237,1.0,3.0,26,0.00,,,-99.99,,2013-06-06 23:52:00,
2013-06-06 18:02:00,85.0,47.0,-100.00,WSW,237,1.0,3.0,26,0.00,,,-99.99,,2013-06-07 00:02:00,
2013-06-06 18:12:00,85.0,44.0,-100.00,SSE,161,4.0,6.0,24,0.00,,,-99.99,,2013-06-07 00:12:00,
2013-06-06 18:22:00,85.0,45.0,-100.00,SSE,168,2.0,5.0,24,0.00,,,-99.99,,2013-06-07 00:22:00,
2013-06-06 18:32:00,85.0,45.0,-100.00,SSE,168,2.0,5.0,24,0.00,,,-99.99,,2013-06-07 00:32:00,
2013-06-06 18:42:00,85.0,45.0,-100.00,SSW,200,1.0,3.0,25,0.00,,,-99.99,,2013-06-07 00:42:00,
2013-06-06 18:52:00,85.0,44.0,-100.00,ENE,73,2.0,3.0,24,0.00,,,-99.99,,2013-06-07 00:52:00,
2013-06-06 19:02:00,85.0,44.0,-100.00,ENE,73,2.0,3.0,24,0.00,,,-99.99,,2013-06-07 01:02:00,
2013-06-06 19:12:00,85.0,44.0,-100.00,ENE,73,2.0,3.0,24,0.00,,,-99.99,,2013-06-07 01:12:00,
2013-06-06 19:22:00,84.0,45.0,-100.00,WSW,248,0.0,1.0,25,0.00,,,-99.99,,2013-06-07 01:22:00,
2013-06-06 19:32:00,84.0,45.0,-100.00,WSW,248,0.0,1.0,25,0.00,,,-99.99,,2013-06-07 01:32:00,
2013-06-06 19:42:00,83.0,43.0,-100.00,ESE,123,0.0,3.0,24,0.00,,,-99.99,,2013-06-07 01:42:00,
2013-06-06 19:52:00,84.0,43.0,-100.00,WSW,240,0.0,0.0,24,0.00,,,-99.99,,2013-06-07 01:52:00,
2013-06-06 20:02:00,84.0,43.0,-100.00,WSW,240,0.0,0.0,24,0.00,,,-99.99,,2013-06-07 02:02:00,
2013-06-06 20:12:00,83.0,44.0,-100.00,WNW,295,1.0,1.0,26,0.00,,,-99.99,,2013-06-07 02:12:00,
2013-06-06 20:22:00,82.0,45.0,-100.00,SSW,209,0.0,1.0,26,0.00,,,-99.99,,2013-06-07 02:22:00,
2013-06-06 20:32:00,82.0,45.0,-100.00,SSW,209,0.0,1.0,26,0.00,,,-99.99,,2013-06-07 02:32:00,
2013-06-06 20:42:00,81.0,53.0,-100.00,SE,143,0.0,1.0,38,0.00,,,-99.99,,2013-06-07 02:42:00,
2013-06-06 20:52:00,78.0,54.0,-100.00,SE,134,0.0,0.0,44,0.00,,,-99.99,,2013-06-07 02:52:00,
2013-06-06 21:02:00,78.0,54.0,-100.00,SE,134,0.0,0.0,44,0.00,,,-99.99,,2013-06-07 03:02:00,
2013-06-06 21:12:00,76.0,53.0,-100.00,West,264,0.0,0.0,44,0.00,,,-99.99,,2013-06-07 03:12:00,
2013-06-06 21:22:00,75.0,53.0,-100.00,SW,233,0.0,0.0,46,0.00,,,-99.99,,2013-06-07 03:22:00,
2013-06-06 21:32:00,75.0,53.0,-100.00,SW,233,0.0,0.0,46,0.00,,,-99.99,,2013-06-07 03:32:00,
2013-06-06 21:43:00,74.0,53.0,-100.00,South,178,1.0,3.0,49,0.00,,,-99.99,,2013-06-07 03:43:00,
2013-06-06 21:53:00,74.0,53.0,-100.00,South,178,1.0,3.0,49,0.00,,,-99.99,,2013-06-07 03:53:00,
2013-06-06 22:03:00,74.0,53.0,-100.00,South,178,1.0,3.0,49,0.00,,,-99.99,,2013-06-07 04:03:00,
2013-06-06 22:12:00,72.0,52.0,-100.00,SW,236,1.0,2.0,49,0.00,,,-99.99,,2013-06-07 04:12:00,
2013-06-06 22:22:00,72.0,51.0,-100.00,North,359,4.0,7.0,48,0.00,,,-99.99,,2013-06-07 04:22:00,
2013-06-06 22:33:00,72.0,51.0,-100.00,North,359,4.0,7.0,48,0.00,,,-99.99,,2013-06-07 04:33:00,
2013-06-06 22:42:00,72.0,51.0,-100.00,North,359,4.0,7.0,48,0.00,,,-99.99,,2013-06-07 04:42:00,
2013-06-06 22:53:00,71.0,51.0,-100.00,North,349,5.0,8.0,49,0.00,,,-99.99,,2013-06-07 04:53:00,
2013-06-06 23:02:00,70.0,50.0,-100.00,North,10,4.0,7.0,49,0.00,,,-99.99,,2013-06-07 05:02:00,
2013-06-06 23:12:00,70.0,50.0,-100.00,North,10,4.0,7.0,49,0.00,,,-99.99,,2013-06-07 05:12:00,
2013-06-06 23:22:00,69.0,51.0,-100.00,North,353,4.0,7.0,51,0.00,,,-99.99,,2013-06-07 05:22:00,
2013-06-06 23:30:00,67.0,51.0,-100.00,North,3,5.0,7.0,57,0.00,,,-99.99,,2013-06-07 05:30:00,
2013-06-06 23:32:00,69.0,51.0,-100.00,NNW,347,4.0,9.0,53,0.00,,,-99.99,,2013-06-07 05:32:00,
2013-06-06 23:42:00,69.0,51.0,-100.00,NNW,347,4.0,9.0,53,0.00,,,-99.99,,2013-06-07 05:42:00,
2013-06-06 23:52:00,67.0,51.0,-100.00,NNW,342,4.0,8.0,55,0.00,,,-99.99,,2013-06-07 05:52:00,